Galena, Indiana
Current Conditions -  °F | °C
As of 4:56 PM on Thursday 23 Oct 2014 (Local Time) from KSDF Reporting Station
Broken Clouds Broken Clouds  
Wind Chill: 64°   Ceiling: 25000
Heat Index: 64°   Visibility: 10mi
Dew Point: 42°   Wind: 7mph
Humidity: 45%   Direction: NA
Pressure: 30.13"   Gusts: NA
Location:  38.3602°N, 85.8979°W
Report Text: KSDF 232056Z VRB06KT 10SM FEW140 SCT180 BKN250 18/06 A3013 RMK AO2 SLP203 T01780056 56023
Loading
Personal Weather Stations






























Interactive Weather Map
Tropical Storm Tracking
New forecast layout! Learn more

10-Day Weather Forecast

Advertisements
Track Severe Weather on mobile